Time;durP1;ratioP1;P1;durP2;ratioP2;P2;SDS_P1;SDS_P2;PMS_P1;PMS_P2;Temp;Humidity;BMP_temperature;BMP_pressure;BME280_temperature;BME280_humidity;BME280_pressure;Samples;Min_cycle;Max_cycle;Signal;HPM_P1;HPM_P2
2022/07/19 00:00:16;;;;;;;390.98;211.70;;;;;;;;;;4977924;28;20240;-52
2022/07/19 00:02:42;;;;;;;407.88;221.93;;;;;;;;;;4968729;28;20221;-53
2022/07/19 00:05:09;;;;;;;437.20;228.23;;;;;;;;;;4976277;28;20662;-52
2022/07/19 00:07:35;;;;;;;361.27;194.30;;;;;;;;;;4975247;28;20353;-52
2022/07/19 00:10:01;;;;;;;419.10;216.35;;;;;;;;;;4974712;28;20218;-52
2022/07/19 00:12:27;;;;;;;457.55;235.60;;;;;;;;;;4975085;28;20531;-52
2022/07/19 00:14:53;;;;;;;402.55;210.43;;;;;;;;;;4975378;28;20237;-52
2022/07/19 00:17:19;;;;;;;425.92;220.63;;;;;;;;;;4975235;28;20230;-52
2022/07/19 00:19:45;;;;;;;388.92;203.68;;;;;;;;;;4972176;28;20277;-52
2022/07/19 00:22:11;;;;;;;390.33;207.25;;;;;;;;;;4976455;28;20319;-52
2022/07/19 00:24:37;;;;;;;365.33;195.82;;;;;;;;;;4974328;28;20197;-51
2022/07/19 00:27:03;;;;;;;399.45;210.10;;;;;;;;;;4978393;28;20205;-52
2022/07/19 00:29:29;;;;;;;391.05;204.13;;;;;;;;;;4973013;28;20233;-53
2022/07/19 00:31:55;;;;;;;438.33;225.88;;;;;;;;;;4969161;28;20284;-52
2022/07/19 00:34:21;;;;;;;357.27;188.95;;;;;;;;;;4974162;28;20228;-52
2022/07/19 00:36:47;;;;;;;354.77;188.90;;;;;;;;;;4977575;28;20232;-52
2022/07/19 00:39:13;;;;;;;381.48;196.15;;;;;;;;;;4975543;28;20182;-52
2022/07/19 00:41:40;;;;;;;379.73;197.73;;;;;;;;;;4975205;28;20570;-52
2022/07/19 00:44:06;;;;;;;404.95;209.52;;;;;;;;;;4971843;28;20217;-52
2022/07/19 00:46:32;;;;;;;357.95;187.48;;;;;;;;;;4979586;28;20563;-52
2022/07/19 00:48:58;;;;;;;423.73;216.68;;;;;;;;;;4975587;28;20697;-52
2022/07/19 00:51:24;;;;;;;384.02;200.52;;;;;;;;;;4976967;28;20186;-52
2022/07/19 00:53:50;;;;;;;374.55;193.43;;;;;;;;;;4978140;28;20248;-57
2022/07/19 00:56:17;;;;;;;389.75;201.10;;;;;;;;;;4977301;28;20225;-52
2022/07/19 00:58:43;;;;;;;384.88;197.45;;;;;;;;;;4989098;28;20232;-52
2022/07/19 01:01:10;;;;;;;373.80;196.38;;;;;;;;;;4974331;28;20218;-52
2022/07/19 01:03:37;;;;;;;386.77;200.27;;;;;;;;;;4979826;28;20174;-52
2022/07/19 01:06:03;;;;;;;394.98;201.80;;;;;;;;;;4978286;28;20198;-52
2022/07/19 01:08:29;;;;;;;380.05;196.77;;;;;;;;;;4978522;28;20686;-52
2022/07/19 01:10:55;;;;;;;389.45;200.73;;;;;;;;;;4981316;28;20221;-52
2022/07/19 01:13:21;;;;;;;393.90;202.65;;;;;;;;;;4975419;28;20233;-52
2022/07/19 01:15:47;;;;;;;366.45;189.10;;;;;;;;;;4979188;28;20276;-52
2022/07/19 01:18:13;;;;;;;387.45;201.38;;;;;;;;;;4983009;28;20257;-52
2022/07/19 01:20:39;;;;;;;366.23;187.15;;;;;;;;;;4979310;28;20240;-53
2022/07/19 01:23:05;;;;;;;450.95;222.70;;;;;;;;;;4968366;28;20225;-52
2022/07/19 01:25:33;;;;;;;409.25;209.07;;;;;;;;;;4975746;28;20871;-52
2022/07/19 01:27:59;;;;;;;377.27;188.75;;;;;;;;;;4974567;28;20859;-52
2022/07/19 01:30:25;;;;;;;416.55;207.18;;;;;;;;;;4974293;28;20190;-53
2022/07/19 01:32:52;;;;;;;387.25;194.90;;;;;;;;;;4978034;28;20618;-52
2022/07/19 01:35:18;;;;;;;383.00;187.75;;;;;;;;;;4979377;28;20263;-52
2022/07/19 01:37:44;;;;;;;422.10;202.57;;;;;;;;;;4970628;28;20236;-55
2022/07/19 01:40:11;;;;;;;415.02;198.20;;;;;;;;;;4971814;28;20677;-52
2022/07/19 01:42:38;;;;;;;452.60;213.03;;;;;;;;;;4973052;28;20190;-52
2022/07/19 01:45:05;;;;;;;408.00;195.57;;;;;;;;;;4970654;28;20672;-52
2022/07/19 01:47:31;;;;;;;346.33;176.98;;;;;;;;;;4975459;28;20928;-52
2022/07/19 01:49:56;;;;;;;345.48;172.27;;;;;;;;;;4977469;28;20217;-52
2022/07/19 01:52:22;;;;;;;370.95;188.02;;;;;;;;;;4975167;28;20214;-52
2022/07/19 01:54:48;;;;;;;428.10;208.57;;;;;;;;;;4978064;28;20290;-52
2022/07/19 01:57:15;;;;;;;434.38;209.68;;;;;;;;;;4980679;28;20322;-52
2022/07/19 01:59:41;;;;;;;386.27;190.40;;;;;;;;;;4980743;28;20231;-53
2022/07/19 02:02:07;;;;;;;409.30;202.93;;;;;;;;;;4974125;28;20230;-52
2022/07/19 02:04:33;;;;;;;380.60;193.18;;;;;;;;;;4972111;28;20225;-52
2022/07/19 02:06:59;;;;;;;369.67;186.32;;;;;;;;;;4973627;28;20233;-52
2022/07/19 02:09:25;;;;;;;395.00;196.65;;;;;;;;;;4976024;28;20194;-52
2022/07/19 02:11:51;;;;;;;428.00;216.70;;;;;;;;;;4972314;28;22052;-52
2022/07/19 02:14:17;;;;;;;435.13;216.50;;;;;;;;;;4971156;28;20232;-51
2022/07/19 02:16:43;;;;;;;397.17;201.32;;;;;;;;;;4979571;28;20233;-52
2022/07/19 02:19:09;;;;;;;423.50;211.80;;;;;;;;;;4975438;28;20221;-52
2022/07/19 02:21:36;;;;;;;475.13;224.65;;;;;;;;;;4989141;28;20193;-52
2022/07/19 02:24:02;;;;;;;401.40;194.52;;;;;;;;;;4967191;28;20237;-52
2022/07/19 02:26:28;;;;;;;458.33;214.45;;;;;;;;;;4976492;28;20236;-52
2022/07/19 02:28:54;;;;;;;379.25;185.95;;;;;;;;;;4976640;28;20222;-52
2022/07/19 02:31:20;;;;;;;414.83;201.38;;;;;;;;;;4974626;28;20303;-52
2022/07/19 02:33:46;;;;;;;399.33;194.68;;;;;;;;;;4969563;28;20213;-52
2022/07/19 02:36:12;;;;;;;462.27;217.43;;;;;;;;;;4964738;28;20182;-52
2022/07/19 02:38:38;;;;;;;393.00;188.52;;;;;;;;;;4972702;28;20222;-52
2022/07/19 02:41:04;;;;;;;393.70;193.93;;;;;;;;;;4970360;28;20222;-52
2022/07/19 02:43:30;;;;;;;375.35;183.15;;;;;;;;;;4971827;28;20221;-52
2022/07/19 02:45:56;;;;;;;492.17;230.15;;;;;;;;;;4972438;28;20667;-52
2022/07/19 02:48:22;;;;;;;391.20;187.98;;;;;;;;;;4982413;28;20202;-51
2022/07/19 02:50:48;;;;;;;419.95;198.38;;;;;;;;;;4975885;28;20224;-52
2022/07/19 02:53:14;;;;;;;426.90;197.98;;;;;;;;;;4972313;28;20221;-52
2022/07/19 02:55:40;;;;;;;492.00;226.67;;;;;;;;;;4970130;28;20230;-52
2022/07/19 02:58:06;;;;;;;414.90;198.27;;;;;;;;;;4970261;28;20225;-52
2022/07/19 03:00:32;;;;;;;381.63;188.47;;;;;;;;;;4981128;28;20173;-51
2022/07/19 03:03:43;;;;;;;424.25;205.60;;;;;;;;;;4971043;28;20174;-52
2022/07/19 03:05:44;;;;;;;452.85;212.60;;;;;;;;;;4970011;28;20233;-51
2022/07/19 03:08:10;;;;;;;443.55;206.60;;;;;;;;;;4965925;28;20230;-52
2022/07/19 03:10:37;;;;;;;397.27;192.60;;;;;;;;;;4988755;28;20210;-52
2022/07/19 03:13:03;;;;;;;435.98;208.30;;;;;;;;;;4970368;28;20232;-52
2022/07/19 03:15:29;;;;;;;462.63;219.87;;;;;;;;;;4970489;28;20249;-52
2022/07/19 03:17:55;;;;;;;404.23;194.03;;;;;;;;;;4969781;28;20222;-52
2022/07/19 03:20:21;;;;;;;391.90;190.55;;;;;;;;;;4973619;28;21218;-52
2022/07/19 03:22:47;;;;;;;416.90;198.50;;;;;;;;;;4972431;28;20291;-52
2022/07/19 03:25:13;;;;;;;453.10;212.80;;;;;;;;;;4976635;28;20559;-52
2022/07/19 03:27:39;;;;;;;416.60;198.07;;;;;;;;;;4971777;28;20276;-52
2022/07/19 03:30:05;;;;;;;430.50;203.02;;;;;;;;;;4981315;28;20837;-53
2022/07/19 03:32:31;;;;;;;408.45;194.18;;;;;;;;;;4971358;28;20236;-51
2022/07/19 03:34:57;;;;;;;404.20;196.73;;;;;;;;;;4969669;28;20225;-52
2022/07/19 03:37:23;;;;;;;402.87;193.43;;;;;;;;;;4968782;28;20238;-52
2022/07/19 03:39:49;;;;;;;390.53;190.60;;;;;;;;;;4971095;28;20210;-52
2022/07/19 03:42:15;;;;;;;410.10;196.13;;;;;;;;;;4982471;28;20186;-52
2022/07/19 03:44:41;;;;;;;364.17;185.65;;;;;;;;;;4973508;28;20272;-52
2022/07/19 03:47:07;;;;;;;400.23;193.15;;;;;;;;;;4969726;28;20248;-52
2022/07/19 03:49:32;;;;;;;394.27;195.33;;;;;;;;;;4974753;28;20225;-52
2022/07/19 03:51:58;;;;;;;383.92;188.93;;;;;;;;;;4975650;28;20284;-52
2022/07/19 03:54:24;;;;;;;403.97;197.07;;;;;;;;;;4972555;28;20197;-51
2022/07/19 03:56:50;;;;;;;363.95;182.13;;;;;;;;;;4978453;28;20199;-52
2022/07/19 03:59:16;;;;;;;441.27;207.63;;;;;;;;;;4973164;28;20546;-51
2022/07/19 04:01:42;;;;;;;387.40;196.17;;;;;;;;;;4974380;28;20221;-51
2022/07/19 04:04:08;;;;;;;449.65;220.77;;;;;;;;;;4967779;28;20236;-52
2022/07/19 04:06:34;;;;;;;388.50;209.50;;;;;;;;;;4974003;28;20205;-51
2022/07/19 04:09:00;;;;;;;365.70;187.77;;;;;;;;;;4977140;28;20520;-52
2022/07/19 04:11:26;;;;;;;402.73;202.30;;;;;;;;;;4971282;28;20276;-52
2022/07/19 04:13:52;;;;;;;383.25;192.80;;;;;;;;;;4976383;28;20225;-52
2022/07/19 04:16:18;;;;;;;395.92;197.68;;;;;;;;;;4973553;28;20236;-52
2022/07/19 04:18:44;;;;;;;363.50;185.05;;;;;;;;;;4974528;28;20222;-53
2022/07/19 04:21:10;;;;;;;415.35;200.57;;;;;;;;;;4967590;28;20178;-51
2022/07/19 04:23:36;;;;;;;385.73;188.63;;;;;;;;;;4972492;28;20229;-52
2022/07/19 04:26:01;;;;;;;357.65;179.45;;;;;;;;;;4980678;28;20217;-51
2022/07/19 04:28:27;;;;;;;371.63;181.57;;;;;;;;;;4972753;28;20236;-51
2022/07/19 04:30:53;;;;;;;380.38;185.50;;;;;;;;;;4977428;28;20229;-52
2022/07/19 04:33:20;;;;;;;419.27;204.52;;;;;;;;;;4974096;28;20185;-52
2022/07/19 04:35:47;;;;;;;395.02;194.35;;;;;;;;;;4967545;28;20229;-52
2022/07/19 04:38:13;;;;;;;391.40;197.98;;;;;;;;;;4969609;28;20229;-52
2022/07/19 04:40:39;;;;;;;401.35;199.85;;;;;;;;;;4970089;28;20217;-52
2022/07/19 04:43:05;;;;;;;446.50;213.35;;;;;;;;;;4968106;28;20224;-53
2022/07/19 04:45:31;;;;;;;408.40;199.70;;;;;;;;;;4967585;28;20184;-52
2022/07/19 04:47:57;;;;;;;374.80;190.50;;;;;;;;;;4985999;28;20209;-51
2022/07/19 04:50:23;;;;;;;377.05;186.77;;;;;;;;;;4971984;28;20222;-52
2022/07/19 04:52:49;;;;;;;399.67;198.50;;;;;;;;;;4970407;28;20221;-52
2022/07/19 04:55:15;;;;;;;437.08;212.05;;;;;;;;;;4974868;28;20225;-51
2022/07/19 04:57:41;;;;;;;436.50;220.10;;;;;;;;;;4985381;28;20229;-52
2022/07/19 05:00:09;;;;;;;412.52;207.90;;;;;;;;;;4970278;28;20174;-51
2022/07/19 05:02:36;;;;;;;359.65;188.13;;;;;;;;;;4980082;28;20215;-52
2022/07/19 05:05:02;;;;;;;392.50;203.02;;;;;;;;;;4971895;28;20603;-52
2022/07/19 05:07:28;;;;;;;420.52;217.13;;;;;;;;;;4968826;28;20222;-53
2022/07/19 05:09:54;;;;;;;405.88;203.60;;;;;;;;;;4973537;28;20221;-52
2022/07/19 05:12:20;;;;;;;378.58;193.73;;;;;;;;;;4974887;28;20277;-52
2022/07/19 05:14:46;;;;;;;381.13;199.90;;;;;;;;;;4976162;28;20232;-52
2022/07/19 05:17:12;;;;;;;396.70;204.13;;;;;;;;;;4975546;28;20218;-52
2022/07/19 05:19:38;;;;;;;426.60;212.38;;;;;;;;;;4972195;28;20229;-52
2022/07/19 05:22:04;;;;;;;409.05;207.70;;;;;;;;;;4973666;28;20236;-54
2022/07/19 05:24:30;;;;;;;429.10;223.05;;;;;;;;;;4977152;28;20213;-53
2022/07/19 05:26:56;;;;;;;398.60;208.52;;;;;;;;;;4974388;28;20654;-54
2022/07/19 05:29:22;;;;;;;593.30;284.73;;;;;;;;;;4960594;28;20237;-53
2022/07/19 05:31:48;;;;;;;463.30;232.77;;;;;;;;;;4975466;28;20221;-53
2022/07/19 05:34:14;;;;;;;514.65;263.00;;;;;;;;;;4974667;28;20217;-53
2022/07/19 05:36:40;;;;;;;430.52;240.27;;;;;;;;;;4982303;28;20213;-53
2022/07/19 05:39:06;;;;;;;440.42;242.90;;;;;;;;;;4966916;28;20170;-53
2022/07/19 05:41:32;;;;;;;470.05;253.13;;;;;;;;;;4964578;28;20734;-53
2022/07/19 05:43:58;;;;;;;423.80;235.40;;;;;;;;;;4961980;28;20245;-53
2022/07/19 05:46:24;;;;;;;454.48;240.70;;;;;;;;;;4972795;28;20225;-52
2022/07/19 05:48:50;;;;;;;385.17;211.23;;;;;;;;;;4964657;28;20224;-52
2022/07/19 05:51:16;;;;;;;458.52;241.25;;;;;;;;;;4973348;28;20171;-53
2022/07/19 05:53:42;;;;;;;460.25;247.38;;;;;;;;;;4949219;28;20281;-52
2022/07/19 05:56:09;;;;;;;397.70;226.00;;;;;;;;;;4971612;28;20217;-53
2022/07/19 05:58:35;;;;;;;520.60;272.02;;;;;;;;;;4971443;28;20232;-52
2022/07/19 06:01:17;;;;;;;390.60;209.23;;;;;;;;;;4975650;28;20217;-52
2022/07/19 06:03:43;;;;;;;414.88;221.43;;;;;;;;;;4974316;28;20228;-53
2022/07/19 06:06:10;;;;;;;386.17;210.57;;;;;;;;;;4972775;28;20655;-52
2022/07/19 06:08:36;;;;;;;399.25;219.43;;;;;;;;;;4974651;28;20217;-52
2022/07/19 06:11:01;;;;;;;369.42;205.20;;;;;;;;;;4977019;28;20275;-52
2022/07/19 06:13:27;;;;;;;405.77;226.35;;;;;;;;;;4978366;28;20229;-52
2022/07/19 06:15:53;;;;;;;421.13;228.52;;;;;;;;;;4980154;28;20214;-51
2022/07/19 06:18:19;;;;;;;407.63;222.88;;;;;;;;;;4974821;28;20261;-52
2022/07/19 06:20:45;;;;;;;366.40;206.00;;;;;;;;;;4988513;28;20210;-51
2022/07/19 06:23:11;;;;;;;376.48;213.00;;;;;;;;;;4978389;28;20302;-49
2022/07/19 06:25:38;;;;;;;526.88;277.80;;;;;;;;;;4975579;28;20226;-50
2022/07/19 06:28:04;;;;;;;363.98;213.25;;;;;;;;;;4976402;28;20956;-49
2022/07/19 06:30:30;;;;;;;371.98;215.15;;;;;;;;;;4979391;28;20558;-49
2022/07/19 06:32:56;;;;;;;362.10;214.15;;;;;;;;;;4994849;28;20171;-53
2022/07/19 06:35:22;;;;;;;406.75;224.40;;;;;;;;;;4983538;28;20222;-53
2022/07/19 06:37:48;;;;;;;396.95;229.07;;;;;;;;;;4981662;28;20276;-54
2022/07/19 06:40:14;;;;;;;385.48;223.43;;;;;;;;;;4984011;28;20376;-52
2022/07/19 06:42:40;;;;;;;459.77;252.45;;;;;;;;;;4967433;28;20182;-52
2022/07/19 06:45:06;;;;;;;390.98;225.38;;;;;;;;;;4977507;28;20247;-52
2022/07/19 06:47:32;;;;;;;408.98;241.93;;;;;;;;;;5008064;28;20468;-52
2022/07/19 06:49:59;;;;;;;388.65;235.75;;;;;;;;;;4981398;28;20225;-52
2022/07/19 06:52:25;;;;;;;412.42;238.82;;;;;;;;;;4977904;28;20253;-52
2022/07/19 06:54:51;;;;;;;420.02;248.73;;;;;;;;;;4973611;28;20733;-52
2022/07/19 06:57:17;;;;;;;430.65;247.13;;;;;;;;;;4976306;28;20201;-52
2022/07/19 06:59:43;;;;;;;375.50;243.85;;;;;;;;;;4972440;28;20224;-52
2022/07/19 07:02:09;;;;;;;376.77;231.25;;;;;;;;;;4972266;28;20225;-52
2022/07/19 07:04:35;;;;;;;482.88;281.67;;;;;;;;;;4971731;28;20230;-52
2022/07/19 07:07:01;;;;;;;392.63;246.63;;;;;;;;;;4981060;28;20234;-52
2022/07/19 07:09:27;;;;;;;403.15;247.30;;;;;;;;;;4981818;28;20232;-52
2022/07/19 07:11:53;;;;;;;467.95;266.70;;;;;;;;;;4976588;28;20535;-52
2022/07/19 07:14:19;;;;;;;461.02;257.40;;;;;;;;;;4968106;28;20230;-52
2022/07/19 07:16:45;;;;;;;475.65;281.20;;;;;;;;;;4969683;28;20221;-52
2022/07/19 07:19:11;;;;;;;401.33;246.38;;;;;;;;;;4975194;28;20547;-54
2022/07/19 07:21:36;;;;;;;412.38;252.10;;;;;;;;;;4973675;28;20194;-54
2022/07/19 07:24:03;;;;;;;476.83;284.10;;;;;;;;;;4970006;28;20179;-53
2022/07/19 07:26:29;;;;;;;407.35;255.15;;;;;;;;;;4974069;28;20237;-53
2022/07/19 07:28:55;;;;;;;420.35;261.88;;;;;;;;;;4970737;28;20323;-53
2022/07/19 07:31:21;;;;;;;439.70;276.30;;;;;;;;;;4969362;28;20213;-52
2022/07/19 07:33:47;;;;;;;398.90;260.60;;;;;;;;;;4972971;28;20225;-54
2022/07/19 07:36:13;;;;;;;434.60;277.08;;;;;;;;;;4974923;28;20616;-53
2022/07/19 07:38:39;;;;;;;433.05;276.10;;;;;;;;;;4970168;28;20210;-53
2022/07/19 07:41:05;;;;;;;379.75;261.77;;;;;;;;;;4970276;28;20236;-54
2022/07/19 07:43:31;;;;;;;456.95;303.45;;;;;;;;;;4979939;28;20217;-54
2022/07/19 07:45:57;;;;;;;484.75;302.58;;;;;;;;;;4972173;28;20236;-54
2022/07/19 07:48:23;;;;;;;446.77;287.98;;;;;;;;;;4969418;28;20209;-53
2022/07/19 07:50:49;;;;;;;445.73;291.60;;;;;;;;;;4974925;28;20181;-53
2022/07/19 07:53:15;;;;;;;438.63;279.67;;;;;;;;;;4967624;28;20226;-54
2022/07/19 07:55:41;;;;;;;472.58;301.30;;;;;;;;;;4966983;28;20668;-53
2022/07/19 07:58:08;;;;;;;425.83;285.77;;;;;;;;;;4973459;28;20371;-54
2022/07/19 08:00:34;;;;;;;468.08;311.77;;;;;;;;;;4969697;28;20209;-54
2022/07/19 08:03:00;;;;;;;395.83;277.50;;;;;;;;;;4972827;28;20186;-53
2022/07/19 08:05:26;;;;;;;469.85;301.73;;;;;;;;;;4974419;28;20309;-54
2022/07/19 08:07:53;;;;;;;435.65;293.65;;;;;;;;;;4973304;28;20689;-52
2022/07/19 08:10:20;;;;;;;469.55;300.52;;;;;;;;;;4975777;28;20555;-54
2022/07/19 08:12:45;;;;;;;459.02;296.33;;;;;;;;;;4967958;28;20226;-54
2022/07/19 08:15:11;;;;;;;454.73;309.88;;;;;;;;;;4970687;28;20232;-54
2022/07/19 08:17:37;;;;;;;449.95;304.63;;;;;;;;;;4965863;28;20229;-54
2022/07/19 08:20:04;;;;;;;414.67;295.00;;;;;;;;;;4974796;28;20614;-53
2022/07/19 08:22:30;;;;;;;459.92;315.80;;;;;;;;;;4990541;28;20217;-53
2022/07/19 08:24:55;;;;;;;412.75;290.52;;;;;;;;;;4968923;28;20213;-53
2022/07/19 08:27:21;;;;;;;445.75;301.98;;;;;;;;;;4973337;28;20205;-54
2022/07/19 08:29:47;;;;;;;458.88;309.75;;;;;;;;;;4974663;28;20178;-54
2022/07/19 08:32:13;;;;;;;440.30;295.70;;;;;;;;;;4965997;28;20252;-53
2022/07/19 08:34:39;;;;;;;404.25;277.20;;;;;;;;;;4972650;28;20225;-54
2022/07/19 08:37:05;;;;;;;408.30;275.10;;;;;;;;;;4970675;28;20222;-53
2022/07/19 08:39:31;;;;;;;411.92;279.08;;;;;;;;;;4970352;28;20178;-53
2022/07/19 08:41:57;;;;;;;384.23;266.75;;;;;;;;;;4977072;28;20174;-53
2022/07/19 08:44:23;;;;;;;425.25;292.10;;;;;;;;;;4971296;28;20214;-53
2022/07/19 08:46:50;;;;;;;502.55;323.00;;;;;;;;;;4974684;28;20221;-54
2022/07/19 08:49:16;;;;;;;430.55;288.30;;;;;;;;;;4974411;28;20221;-54
2022/07/19 08:51:43;;;;;;;431.35;286.45;;;;;;;;;;4970701;28;20225;-54
2022/07/19 08:54:09;;;;;;;484.55;297.70;;;;;;;;;;4983150;28;20181;-53
2022/07/19 08:59:22;;;;;;;436.65;296.42;;;;;;;;;;4972983;28;20240;-54
2022/07/19 09:01:48;;;;;;;489.42;303.02;;;;;;;;;;4973184;28;20221;-54
2022/07/19 09:04:15;;;;;;;510.58;332.27;;;;;;;;;;4957675;28;21068;-54
2022/07/19 09:06:54;;;;;;;467.85;321.42;;;;;;;;;;4968160;28;20283;-54
2022/07/19 09:09:21;;;;;;;409.95;296.00;;;;;;;;;;4961318;28;20194;-54
2022/07/19 09:11:48;;;;;;;420.42;293.05;;;;;;;;;;4970352;28;20210;-53
2022/07/19 09:14:15;;;;;;;436.63;292.63;;;;;;;;;;4972704;28;20293;-54
2022/07/19 09:16:50;;;;;;;409.38;286.08;;;;;;;;;;4982815;28;20489;-54
2022/07/19 09:19:16;;;;;;;418.05;290.05;;;;;;;;;;4983733;28;20217;-54
2022/07/19 09:21:52;;;;;;;389.70;279.80;;;;;;;;;;4985448;28;20217;-53
2022/07/19 09:24:19;;;;;;;468.00;319.63;;;;;;;;;;4979766;28;20173;-53
2022/07/19 09:26:55;;;;;;;390.23;282.50;;;;;;;;;;4979891;28;20232;-53
2022/07/19 09:29:20;;;;;;;413.50;295.17;;;;;;;;;;4978908;28;20218;-53
2022/07/19 09:31:59;;;;;;;428.88;297.05;;;;;;;;;;4979094;28;20324;-53
2022/07/19 09:34:29;;;;;;;430.80;308.55;;;;;;;;;;4981157;28;20225;-53
2022/07/19 09:37:14;;;;;;;385.80;287.15;;;;;;;;;;4984331;28;20218;-54
2022/07/19 09:39:47;;;;;;;407.30;304.55;;;;;;;;;;4984057;28;20634;-54
2022/07/19 09:42:14;;;;;;;398.02;291.70;;;;;;;;;;4987100;28;20584;-54
2022/07/19 09:44:41;;;;;;;381.13;280.92;;;;;;;;;;4996440;28;20614;-53
2022/07/19 09:47:07;;;;;;;448.65;319.20;;;;;;;;;;4977839;28;20280;-54
2022/07/19 09:49:33;;;;;;;389.67;290.73;;;;;;;;;;5001497;28;20224;-53
2022/07/19 09:52:01;;;;;;;387.00;287.23;;;;;;;;;;4991067;28;20213;-53
2022/07/19 09:54:27;;;;;;;394.63;293.23;;;;;;;;;;4986006;28;20196;-54
2022/07/19 09:56:54;;;;;;;368.38;287.23;;;;;;;;;;4984104;28;20198;-53
2022/07/19 09:59:22;;;;;;;378.92;285.75;;;;;;;;;;4980479;28;20213;-54
2022/07/19 10:01:49;;;;;;;426.05;314.75;;;;;;;;;;4987008;28;20222;-53
2022/07/19 10:04:17;;;;;;;416.15;309.83;;;;;;;;;;4983938;28;20218;-53
2022/07/19 10:06:43;;;;;;;395.77;311.00;;;;;;;;;;4982158;28;20232;-54
2022/07/19 10:09:14;;;;;;;369.50;280.40;;;;;;;;;;4983099;28;20193;-54
2022/07/19 10:11:40;;;;;;;388.63;293.73;;;;;;;;;;4977101;28;20206;-54
2022/07/19 10:14:06;;;;;;;411.85;307.58;;;;;;;;;;4980576;28;20218;-54
2022/07/19 10:16:32;;;;;;;396.58;304.85;;;;;;;;;;4982475;28;20699;-54
2022/07/19 10:19:17;;;;;;;376.88;296.20;;;;;;;;;;4982137;28;20228;-54
2022/07/19 10:21:44;;;;;;;399.08;302.10;;;;;;;;;;4983480;28;20225;-54
2022/07/19 10:24:10;;;;;;;405.73;314.75;;;;;;;;;;4989498;28;20174;-54
2022/07/19 10:26:36;;;;;;;439.90;334.58;;;;;;;;;;4968792;28;20256;-54
2022/07/19 10:29:06;;;;;;;392.23;309.60;;;;;;;;;;4982536;28;20233;-54
2022/07/19 10:31:35;;;;;;;400.13;312.85;;;;;;;;;;4981732;28;20669;-54
2022/07/19 10:34:02;;;;;;;410.33;313.08;;;;;;;;;;4979583;28;20213;-54
2022/07/19 10:36:47;;;;;;;433.92;325.95;;;;;;;;;;4969510;28;20197;-55
2022/07/19 10:39:19;;;;;;;494.42;354.70;;;;;;;;;;4972764;28;20676;-54
2022/07/19 10:42:04;;;;;;;412.33;319.83;;;;;;;;;;4965863;28;20214;-54
2022/07/19 10:44:30;;;;;;;472.70;346.63;;;;;;;;;;4977400;28;20221;-54
2022/07/19 10:46:56;;;;;;;440.23;343.42;;;;;;;;;;4962940;28;20280;-54
2022/07/19 10:49:51;;;;;;;411.45;324.10;;;;;;;;;;4975642;28;20265;-54
2022/07/19 10:52:29;;;;;;;392.05;310.75;;;;;;;;;;4984572;28;20217;-54
2022/07/19 10:55:14;;;;;;;484.70;353.73;;;;;;;;;;4975977;28;20225;-54
2022/07/19 10:57:40;;;;;;;422.15;339.30;;;;;;;;;;4972674;28;20673;-54
2022/07/19 11:00:16;;;;;;;421.95;342.13;;;;;;;;;;4982429;28;20174;-54
2022/07/19 11:02:42;;;;;;;415.67;337.95;;;;;;;;;;4974076;28;20216;-54
2022/07/19 11:05:08;;;;;;;475.50;357.60;;;;;;;;;;4973239;28;20685;-55
2022/07/19 11:07:34;;;;;;;502.27;365.90;;;;;;;;;;4962513;28;20554;-54
2022/07/19 11:10:02;;;;;;;441.42;331.70;;;;;;;;;;4970998;28;20218;-54
2022/07/19 11:12:33;;;;;;;439.50;335.75;;;;;;;;;;4971093;28;20583;-54
2022/07/19 11:15:00;;;;;;;419.55;336.70;;;;;;;;;;4973309;28;20221;-54
2022/07/19 11:17:26;;;;;;;457.02;358.67;;;;;;;;;;4964971;28;20222;-53
2022/07/19 11:20:04;;;;;;;451.73;354.40;;;;;;;;;;4972573;28;20713;-54
2022/07/19 11:22:38;;;;;;;554.38;397.33;;;;;;;;;;4964812;28;20218;-54
2022/07/19 11:25:04;;;;;;;449.40;346.42;;;;;;;;;;4969245;28;20221;-54
2022/07/19 11:27:31;;;;;;;449.13;340.63;;;;;;;;;;4964562;28;21140;-54
2022/07/19 11:29:58;;;;;;;451.88;345.45;;;;;;;;;;4967844;28;20178;-54
2022/07/19 11:32:24;;;;;;;575.05;389.77;;;;;;;;;;4968861;28;20238;-54
2022/07/19 11:34:53;;;;;;;505.42;371.40;;;;;;;;;;4991708;28;20275;-54
2022/07/19 11:37:23;;;;;;;448.80;358.02;;;;;;;;;;4973674;28;20809;-54
2022/07/19 11:39:49;;;;;;;402.90;328.98;;;;;;;;;;4973030;28;20782;-54
2022/07/19 11:42:15;;;;;;;410.90;339.65;;;;;;;;;;4981218;28;20229;-54
2022/07/19 11:44:41;;;;;;;501.52;376.52;;;;;;;;;;4974228;28;20214;-54
2022/07/19 11:47:07;;;;;;;456.90;366.50;;;;;;;;;;4970056;28;20285;-54
2022/07/19 11:49:39;;;;;;;481.27;372.08;;;;;;;;;;4968999;28;20271;-55
2022/07/19 11:52:05;;;;;;;370.40;329.38;;;;;;;;;;4971224;28;20228;-54
2022/07/19 11:54:31;;;;;;;451.38;358.80;;;;;;;;;;4973462;28;20641;-54
2022/07/19 11:56:57;;;;;;;458.55;365.35;;;;;;;;;;4966031;28;20198;-54
2022/07/19 11:59:23;;;;;;;488.35;368.73;;;;;;;;;;4964579;28;20222;-54
2022/07/19 12:01:57;;;;;;;469.40;365.17;;;;;;;;;;4970871;28;20225;-54
2022/07/19 12:04:23;;;;;;;411.05;344.45;;;;;;;;;;4975651;28;20249;-54
2022/07/19 12:06:51;;;;;;;443.88;371.85;;;;;;;;;;4973956;28;20225;-54
2022/07/19 12:09:18;;;;;;;480.73;372.05;;;;;;;;;;4975180;28;21099;-55
2022/07/19 12:11:48;;;;;;;491.60;376.02;;;;;;;;;;4958303;28;20223;-55
2022/07/19 12:14:17;;;;;;;490.45;378.02;;;;;;;;;;4965074;28;20280;-54
2022/07/19 12:16:44;;;;;;;426.75;379.90;;;;;;;;;;4980042;28;20226;-54
2022/07/19 12:19:17;;;;;;;432.73;382.98;;;;;;;;;;4979101;28;20233;-54
2022/07/19 12:21:43;;;;;;;472.13;391.08;;;;;;;;;;4958445;28;20670;-54
2022/07/19 12:24:30;;;;;;;538.58;405.05;;;;;;;;;;4967529;28;26122;-54
2022/07/19 12:27:02;;;;;;;472.85;394.98;;;;;;;;;;4971550;28;20221;-54
2022/07/19 12:29:29;;;;;;;567.72;413.17;;;;;;;;;;4961943;28;20527;-54
2022/07/19 12:31:57;;;;;;;491.67;391.88;;;;;;;;;;4974202;28;20563;-54
2022/07/19 12:34:23;;;;;;;410.92;366.00;;;;;;;;;;4969596;28;20277;-54
2022/07/19 12:36:49;;;;;;;452.40;393.13;;;;;;;;;;4979029;28;20229;-54
2022/07/19 12:39:18;;;;;;;516.08;422.55;;;;;;;;;;4974268;28;20179;-54
2022/07/19 12:42:03;;;;;;;483.67;406.63;;;;;;;;;;4969549;28;20247;-54
2022/07/19 12:44:29;;;;;;;442.27;393.75;;;;;;;;;;4972606;28;20225;-54
2022/07/19 12:46:55;;;;;;;514.60;429.27;;;;;;;;;;4970411;28;20282;-54
2022/07/19 12:49:21;;;;;;;444.83;396.55;;;;;;;;;;4989472;28;20222;-54
2022/07/19 12:51:47;;;;;;;463.50;410.70;;;;;;;;;;4975009;28;20221;-54
2022/07/19 12:54:14;;;;;;;430.98;384.63;;;;;;;;;;4975826;28;20192;-54
2022/07/19 12:56:40;;;;;;;488.70;434.90;;;;;;;;;;4970874;28;20601;-54
2022/07/19 13:01:51;;;;;;;472.20;418.67;;;;;;;;;;4972175;28;20271;-54
2022/07/19 13:04:17;;;;;;;480.00;427.88;;;;;;;;;;4972934;28;20539;-54
2022/07/19 13:06:43;;;;;;;486.63;433.60;;;;;;;;;;4973016;28;20224;-54
2022/07/19 13:09:09;;;;;;;491.23;436.42;;;;;;;;;;4972507;28;20185;-54
2022/07/19 13:11:35;;;;;;;484.80;432.98;;;;;;;;;;4972287;28;20555;-54
2022/07/19 13:14:01;;;;;;;474.98;425.20;;;;;;;;;;4971399;28;20778;-54
2022/07/19 13:16:27;;;;;;;471.55;424.33;;;;;;;;;;4975930;28;20264;-54
2022/07/19 13:18:53;;;;;;;488.10;437.67;;;;;;;;;;4972068;28;20217;-54
2022/07/19 13:21:21;;;;;;;469.20;421.10;;;;;;;;;;4965191;28;20640;-53
2022/07/19 13:23:47;;;;;;;547.97;486.58;;;;;;;;;;4971825;28;20654;-55
2022/07/19 13:26:13;;;;;;;483.70;434.75;;;;;;;;;;4972775;28;20218;-54
2022/07/19 13:28:39;;;;;;;489.88;439.30;;;;;;;;;;4968970;28;20214;-55
2022/07/19 13:31:05;;;;;;;494.58;444.42;;;;;;;;;;4966739;28;20280;-55
2022/07/19 13:33:31;;;;;;;508.50;454.98;;;;;;;;;;4966752;28;20623;-54
2022/07/19 13:35:57;;;;;;;516.70;462.25;;;;;;;;;;4971222;28;20863;-54
2022/07/19 13:38:23;;;;;;;523.67;466.48;;;;;;;;;;4978908;28;20229;-54
2022/07/19 13:40:49;;;;;;;492.02;441.83;;;;;;;;;;4962953;28;20830;-54
2022/07/19 13:43:15;;;;;;;470.73;426.15;;;;;;;;;;4971764;28;20572;-54
2022/07/19 13:45:41;;;;;;;504.25;450.17;;;;;;;;;;4968129;28;20333;-54
2022/07/19 13:48:07;;;;;;;475.33;427.13;;;;;;;;;;4972085;28;20194;-53
2022/07/19 13:50:33;;;;;;;494.50;440.90;;;;;;;;;;4967375;28;20228;-54
2022/07/19 13:52:59;;;;;;;485.90;435.75;;;;;;;;;;4962791;28;21336;-54
2022/07/19 13:55:26;;;;;;;514.67;458.92;;;;;;;;;;4962254;28;20221;-54